createdAt,value
2019-02-17T00:00:37.636Z,10.73
2019-02-17T00:03:06.881Z,10.73
2019-02-17T00:05:35.936Z,10.71
2019-02-17T00:08:05.010Z,10.67
2019-02-17T00:10:34.096Z,10.63
2019-02-17T00:13:03.211Z,10.61
2019-02-17T00:15:32.294Z,10.56
2019-02-17T00:18:01.394Z,10.54
2019-02-17T00:20:30.506Z,10.51
2019-02-17T00:22:59.584Z,10.46
2019-02-17T00:25:28.788Z,10.44
2019-02-17T00:27:57.951Z,10.39
2019-02-17T00:30:27.068Z,10.32
2019-02-17T00:32:56.161Z,10.21
2019-02-17T00:35:25.274Z,10.07
2019-02-17T00:37:54.391Z,10.03
2019-02-17T00:40:23.495Z,9.98
2019-02-17T00:42:52.615Z,9.95
2019-02-17T00:45:21.737Z,9.93
2019-02-17T00:47:50.849Z,9.94
2019-02-17T00:50:20.084Z,9.97
2019-02-17T00:52:49.186Z,9.96
2019-02-17T00:55:18.419Z,9.96
2019-02-17T00:57:47.501Z,9.98
2019-02-17T01:00:16.700Z,9.98
2019-02-17T01:02:45.792Z,9.99
2019-02-17T01:05:14.929Z,9.97
2019-02-17T01:07:44.001Z,9.97
2019-02-17T01:10:13.157Z,9.93
2019-02-17T01:12:42.201Z,9.96
2019-02-17T01:15:11.349Z,9.97
2019-02-17T01:17:40.619Z,9.96
2019-02-17T01:20:10.020Z,9.96
2019-02-17T01:22:39.102Z,9.97
2019-02-17T01:25:08.443Z,9.98
2019-02-17T01:27:37.642Z,9.98
2019-02-17T01:30:07.283Z,9.98
2019-02-17T01:32:36.358Z,10.01
2019-02-17T01:35:05.618Z,10.00
2019-02-17T01:37:34.846Z,9.99
2019-02-17T01:40:04.391Z,9.98
2019-02-17T01:42:33.582Z,9.99
2019-02-17T01:45:02.759Z,9.98
2019-02-17T01:47:31.875Z,9.97
2019-02-17T01:50:00.942Z,9.94
2019-02-17T01:52:30.007Z,9.93
2019-02-17T01:54:59.092Z,9.89
2019-02-17T01:57:28.207Z,9.89
2019-02-17T01:59:57.331Z,9.86
2019-02-17T02:02:26.428Z,9.85
2019-02-17T02:04:55.520Z,9.84
2019-02-17T02:07:24.702Z,9.83
2019-02-17T02:09:53.783Z,9.83
2019-02-17T02:12:22.971Z,9.83
2019-02-17T02:14:52.048Z,9.79
2019-02-17T02:17:21.115Z,9.79
2019-02-17T02:19:50.208Z,9.77
2019-02-17T02:22:19.346Z,9.77
2019-02-17T02:24:48.467Z,9.76
2019-02-17T02:27:17.653Z,9.73
2019-02-17T02:29:46.839Z,9.74
2019-02-17T02:32:15.919Z,9.73
2019-02-17T02:34:45.051Z,9.71
2019-02-17T02:37:14.190Z,9.70
2019-02-17T02:39:43.264Z,9.71
2019-02-17T02:42:12.279Z,9.68
2019-02-17T02:44:41.377Z,9.67
2019-02-17T02:47:10.444Z,9.64
2019-02-17T02:49:39.541Z,9.64
2019-02-17T02:52:08.924Z,9.62
2019-02-17T02:54:38.114Z,9.60
2019-02-17T02:57:07.253Z,9.58
2019-02-17T02:59:36.349Z,9.59
2019-02-17T03:02:05.563Z,9.58
2019-02-17T03:04:34.618Z,9.55
2019-02-17T03:07:06.376Z,9.54
2019-02-17T09:57:01.594Z,31.52
2019-02-17T09:59:30.754Z,32.31
2019-02-17T10:01:59.995Z,32.93
2019-02-17T10:04:29.113Z,33.20
2019-02-17T10:06:58.282Z,33.61
2019-02-17T10:09:27.374Z,34.15
2019-02-17T10:11:56.403Z,34.58
2019-02-17T10:14:25.456Z,34.86
2019-02-17T10:16:54.520Z,35.15
2019-02-17T10:19:23.663Z,35.35
2019-02-17T10:21:52.721Z,35.09
2019-02-17T10:24:21.911Z,34.55
2019-02-17T10:26:50.995Z,34.33
2019-02-17T10:29:20.241Z,34.37
2019-02-17T10:31:49.403Z,34.30
2019-02-17T10:34:18.562Z,34.69
2019-02-17T10:36:47.987Z,35.28
2019-02-17T10:39:17.068Z,35.66
2019-02-17T10:41:46.216Z,35.52
2019-02-17T10:44:15.313Z,35.34
2019-02-17T10:46:44.511Z,35.48
2019-02-17T10:49:13.774Z,35.91
2019-02-17T10:51:42.863Z,36.28
2019-02-17T10:54:11.948Z,36.61
2019-02-17T10:56:41.241Z,37.04
2019-02-17T10:59:10.355Z,37.51
2019-02-17T11:01:40.817Z,38.31
2019-02-17T11:04:11.615Z,39.07
2019-02-17T11:06:40.771Z,39.13
2019-02-17T11:09:18.978Z,39.21
2019-02-17T11:11:48.187Z,39.19
2019-02-17T11:14:17.415Z,38.97
2019-02-17T11:16:46.998Z,38.86
2019-02-17T11:19:16.459Z,39.09
2019-02-17T11:21:45.672Z,39.37
2019-02-17T11:24:14.858Z,39.22
2019-02-17T11:26:44.029Z,39.31
2019-02-17T11:29:13.130Z,39.17
2019-02-17T11:31:42.238Z,39.29
2019-02-17T11:34:11.338Z,40.02
2019-02-17T11:36:40.533Z,40.47
2019-02-17T11:39:17.371Z,40.16
2019-02-17T11:41:46.492Z,39.43
2019-02-17T11:44:15.675Z,39.23
2019-02-17T11:46:44.824Z,39.62
2019-02-17T11:49:13.909Z,40.32
2019-02-17T11:51:43.046Z,40.81
2019-02-17T11:54:12.101Z,40.97
2019-02-17T11:56:41.234Z,41.13
2019-02-17T11:59:10.320Z,40.86
2019-02-17T12:01:39.517Z,41.01
2019-02-17T12:04:08.680Z,40.65
2019-02-17T12:06:37.775Z,40.56
2019-02-17T12:09:08.145Z,40.77
2019-02-17T12:11:37.337Z,40.73
2019-02-17T12:14:06.504Z,40.60
2019-02-17T12:16:37.268Z,40.34
2019-02-17T12:19:06.534Z,40.89
2019-02-17T12:21:41.105Z,41.67
2019-02-17T12:24:18.701Z,42.40
2019-02-17T12:27:09.913Z,42.82
2019-02-17T12:29:51.038Z,43.07
2019-02-17T12:32:22.844Z,43.51
2019-02-17T12:34:51.927Z,43.96
2019-02-17T12:37:21.046Z,44.08
2019-02-17T12:39:50.231Z,44.12
2019-02-17T12:42:19.737Z,43.60
2019-02-17T12:44:49.006Z,42.97
2019-02-17T12:47:18.191Z,41.84
2019-02-17T12:49:47.371Z,40.88
2019-02-17T12:52:16.602Z,39.58
2019-02-17T12:54:46.025Z,37.84
2019-02-17T12:57:15.111Z,36.00
2019-02-17T12:59:44.196Z,34.34
2019-02-17T13:02:13.342Z,32.95
2019-02-17T13:04:42.482Z,31.81
2019-02-17T13:07:11.688Z,30.71
2019-02-17T13:09:40.755Z,29.97
2019-02-17T13:12:09.846Z,29.28
2019-02-17T13:14:38.863Z,28.61
2019-02-17T13:17:08.026Z,28.07
2019-02-17T13:19:37.131Z,27.65
2019-02-17T13:22:06.211Z,27.34
2019-02-17T13:24:35.219Z,27.09
2019-02-17T13:27:04.314Z,26.66
2019-02-17T13:29:33.433Z,26.25
2019-02-17T13:32:02.573Z,26.03
2019-02-17T13:34:31.605Z,25.88
2019-02-17T13:37:00.731Z,25.76
2019-02-17T13:39:29.768Z,25.65
2019-02-17T13:41:58.861Z,25.46
2019-02-17T13:44:27.935Z,25.28
2019-02-17T13:46:57.026Z,25.01
2019-02-17T13:49:26.089Z,24.77
2019-02-17T13:51:55.375Z,24.53
2019-02-17T13:54:24.438Z,24.45
2019-02-17T13:56:53.551Z,24.43
2019-02-17T13:59:22.643Z,24.37
2019-02-17T14:01:52.249Z,24.31
2019-02-17T14:04:21.309Z,24.26
2019-02-17T14:06:51.759Z,24.22
2019-02-17T14:09:20.958Z,24.18
2019-02-17T14:11:50.004Z,24.07
2019-02-17T14:14:19.060Z,23.99
2019-02-17T14:16:48.173Z,23.94
2019-02-17T14:19:17.258Z,23.95
2019-02-17T14:21:46.334Z,23.91
2019-02-17T14:24:15.415Z,23.83
2019-02-17T14:26:44.537Z,23.70
2019-02-17T14:29:13.623Z,23.69
2019-02-17T14:31:42.698Z,23.64
2019-02-17T14:34:11.807Z,23.58
2019-02-17T14:36:40.903Z,23.51
2019-02-17T14:39:09.908Z,23.44
2019-02-17T14:41:38.963Z,23.35
2019-02-17T14:44:08.021Z,23.20
2019-02-17T14:46:37.067Z,23.08
2019-02-17T14:49:06.221Z,23.02
2019-02-17T14:51:35.242Z,22.93
2019-02-17T14:54:06.566Z,22.85
2019-02-17T14:56:35.138Z,22.73
2019-02-17T14:59:04.214Z,22.59
2019-02-17T15:01:33.272Z,22.54
2019-02-17T15:04:08.818Z,22.51
2019-02-17T15:06:33.120Z,22.44
2019-02-17T15:09:02.184Z,22.40
2019-02-17T15:11:31.195Z,22.33
2019-02-17T15:14:00.232Z,22.36
2019-02-17T15:16:29.289Z,22.27
2019-02-17T15:18:58.357Z,22.20
2019-02-17T15:21:27.370Z,22.14
2019-02-17T15:23:56.436Z,22.05
2019-02-17T15:26:25.483Z,21.99
2019-02-17T15:28:54.551Z,21.94
2019-02-17T15:31:23.621Z,21.85
2019-02-17T15:33:52.684Z,21.83
2019-02-17T15:36:21.711Z,21.81
2019-02-17T15:38:50.819Z,21.79
2019-02-17T15:41:19.880Z,21.76
2019-02-17T15:43:48.973Z,21.73
2019-02-17T15:46:17.963Z,21.71
2019-02-17T15:48:47.007Z,21.65
2019-02-17T15:51:16.124Z,21.60
2019-02-17T15:53:45.249Z,21.57
2019-02-17T15:56:14.330Z,21.54
2019-02-17T15:58:44.975Z,21.47
2019-02-17T16:01:14.172Z,21.41
2019-02-17T16:03:44.946Z,21.36
2019-02-17T16:06:14.462Z,21.23
2019-02-17T16:08:43.496Z,21.15
2019-02-17T16:11:12.573Z,21.07
2019-02-17T16:13:41.735Z,21.04
2019-02-17T16:16:10.715Z,20.94
2019-02-17T16:18:39.769Z,20.86
2019-02-17T16:21:08.851Z,20.79
2019-02-17T16:23:37.873Z,20.67
2019-02-17T16:26:06.881Z,20.58
2019-02-17T16:28:35.969Z,20.48
2019-02-17T16:31:05.102Z,20.40
2019-02-17T16:33:34.155Z,20.30
2019-02-17T16:36:03.291Z,20.13
2019-02-17T16:38:32.524Z,20.06
2019-02-17T16:41:01.610Z,19.92
2019-02-17T16:43:30.687Z,19.85
2019-02-17T16:45:59.774Z,19.76
2019-02-17T16:48:28.865Z,19.68
2019-02-17T16:50:57.909Z,19.62
2019-02-17T16:53:26.952Z,19.48
2019-02-17T16:55:56.002Z,19.39
2019-02-17T16:58:25.083Z,18.65
2019-02-17T17:00:54.119Z,19.22
2019-02-17T17:03:23.289Z,19.13
2019-02-17T17:05:52.319Z,19.05
2019-02-17T17:08:21.387Z,18.98
2019-02-17T17:10:50.514Z,18.85
2019-02-17T17:13:19.570Z,18.80
2019-02-17T17:15:48.647Z,18.72
2019-02-17T17:18:17.786Z,18.63
2019-02-17T17:20:46.999Z,18.59
2019-02-17T17:23:16.100Z,18.53
2019-02-17T17:25:45.196Z,18.43
2019-02-17T17:28:14.398Z,18.40
2019-02-17T17:30:43.385Z,18.34
2019-02-17T17:33:12.610Z,18.28
2019-02-17T17:35:41.633Z,18.29
2019-02-17T17:38:10.708Z,18.18
2019-02-17T17:40:39.747Z,18.14
2019-02-17T17:43:08.804Z,18.08
2019-02-17T17:45:37.865Z,18.10
2019-02-17T17:48:06.918Z,18.01
2019-02-17T17:50:35.969Z,18.00
2019-02-17T17:53:05.042Z,17.96
2019-02-17T17:55:34.184Z,17.87
2019-02-17T17:58:03.192Z,17.86
2019-02-17T18:00:33.649Z,17.80
2019-02-17T18:03:02.693Z,17.77
2019-02-17T18:05:31.800Z,17.73
2019-02-17T18:08:00.872Z,17.71
2019-02-17T18:10:30.004Z,17.69
2019-02-17T18:12:59.005Z,17.62
2019-02-17T18:15:28.036Z,17.58
2019-02-17T18:17:57.096Z,17.59
2019-02-17T18:20:26.171Z,17.52
2019-02-17T18:22:55.236Z,17.50
2019-02-17T18:25:24.297Z,17.46
2019-02-17T18:27:53.359Z,17.44
2019-02-17T18:30:22.574Z,17.45
2019-02-17T18:32:51.657Z,17.39
2019-02-17T18:35:20.955Z,17.37
2019-02-17T18:37:50.025Z,17.33
2019-02-17T18:40:19.150Z,17.31
2019-02-17T18:42:48.207Z,17.28
2019-02-17T18:45:17.245Z,17.23
2019-02-17T18:47:46.420Z,17.24
2019-02-17T18:50:15.492Z,17.16
2019-02-17T18:52:44.524Z,17.11
2019-02-17T18:55:13.666Z,17.06
2019-02-17T18:57:49.422Z,17.04
2019-02-17T19:00:14.609Z,17.01
2019-02-17T19:02:43.657Z,16.95
2019-02-17T19:05:13.582Z,16.91
2019-02-17T19:07:43.397Z,16.87
2019-02-17T19:10:12.903Z,16.82
2019-02-17T19:12:42.105Z,16.77
2019-02-17T19:15:12.318Z,16.76
2019-02-17T19:17:41.340Z,16.72
2019-02-17T19:20:12.397Z,16.66
2019-02-17T19:22:41.524Z,16.63
2019-02-17T19:25:10.661Z,16.58
2019-02-17T19:27:39.729Z,16.54
2019-02-17T19:30:09.711Z,16.52
2019-02-17T19:32:38.761Z,16.44
2019-02-17T19:35:10.080Z,16.45
2019-02-17T19:37:39.994Z,16.43
2019-02-17T19:40:10.555Z,16.38
2019-02-17T19:42:39.671Z,16.33
2019-02-17T19:45:09.771Z,16.32
2019-02-17T19:47:39.030Z,16.28
2019-02-17T19:50:09.401Z,16.29
2019-02-17T19:52:38.694Z,16.23
2019-02-17T19:55:07.979Z,16.23
2019-02-17T19:57:37.181Z,16.21
2019-02-17T20:00:06.945Z,16.19
2019-02-17T20:02:47.638Z,16.14
2019-02-17T20:05:18.664Z,16.12
2019-02-17T20:07:47.724Z,16.07
2019-02-17T20:10:16.758Z,16.05
2019-02-17T20:12:45.819Z,16.06
2019-02-17T20:15:15.036Z,16.00
2019-02-17T20:17:44.315Z,15.99
2019-02-17T20:20:13.506Z,15.98
2019-02-17T20:22:42.638Z,15.93
2019-02-17T20:25:11.729Z,15.88
2019-02-17T20:27:40.793Z,15.90
2019-02-17T20:30:10.356Z,15.87
2019-02-17T20:32:39.453Z,15.86
2019-02-17T20:35:08.545Z,15.84
2019-02-17T20:37:37.681Z,15.82
2019-02-17T20:40:07.350Z,15.80
2019-02-17T20:42:36.511Z,15.78
2019-02-17T20:45:05.907Z,15.76
2019-02-17T20:47:34.982Z,15.76
2019-02-17T20:50:04.247Z,15.74
2019-02-17T20:52:33.355Z,15.71
2019-02-17T20:55:02.387Z,15.72
2019-02-17T20:57:31.524Z,15.66
2019-02-17T21:00:00.644Z,15.66
2019-02-17T21:02:29.741Z,15.63
2019-02-17T21:04:58.836Z,15.61
2019-02-17T21:07:27.930Z,15.59
2019-02-17T21:09:57.011Z,15.56
2019-02-17T21:12:26.150Z,15.51
2019-02-17T21:14:55.209Z,15.50
2019-02-17T21:17:24.313Z,15.47
2019-02-17T21:19:53.349Z,15.46
2019-02-17T21:22:22.402Z,15.41
2019-02-17T21:24:51.561Z,15.37
2019-02-17T21:27:20.652Z,15.33
2019-02-17T21:29:49.730Z,15.28
2019-02-17T21:32:18.895Z,15.22
2019-02-17T21:34:47.974Z,15.18
2019-02-17T21:37:17.031Z,15.15
2019-02-17T21:39:46.274Z,15.11
2019-02-17T21:42:15.349Z,15.11
2019-02-17T21:44:44.392Z,15.10
2019-02-17T21:47:13.446Z,15.07
2019-02-17T21:49:42.553Z,15.03
2019-02-17T21:52:11.636Z,15.02
2019-02-17T21:54:40.694Z,15.00
2019-02-17T21:57:09.785Z,14.98
2019-02-17T21:59:38.826Z,14.93
2019-02-17T22:02:07.873Z,14.93
2019-02-17T22:04:36.951Z,14.92
2019-02-17T22:07:06.054Z,14.87
2019-02-17T22:09:35.095Z,14.85
2019-02-17T22:12:04.203Z,14.84
2019-02-17T22:14:33.222Z,14.82
2019-02-17T22:17:02.273Z,14.79
2019-02-17T22:19:31.351Z,14.73
2019-02-17T22:22:00.386Z,14.68
2019-02-17T22:24:29.419Z,14.62
2019-02-17T22:26:58.514Z,14.59
2019-02-17T22:29:27.610Z,14.56
2019-02-17T22:31:56.599Z,14.52
2019-02-17T22:34:25.705Z,14.48
2019-02-17T22:36:54.980Z,14.46
2019-02-17T22:39:24.044Z,14.41
2019-02-17T22:42:01.959Z,14.43
2019-02-17T22:44:31.077Z,14.34
2019-02-17T22:47:00.138Z,14.33
2019-02-17T22:49:29.185Z,14.30
2019-02-17T22:51:58.333Z,14.27
2019-02-17T22:54:27.409Z,14.25
2019-02-17T22:56:56.520Z,14.23
2019-02-17T22:59:25.652Z,14.23
2019-02-17T23:01:54.795Z,14.20
2019-02-17T23:04:23.917Z,14.16
2019-02-17T23:06:54.395Z,14.14
2019-02-17T23:09:23.957Z,14.12
2019-02-17T23:11:52.996Z,14.09
2019-02-17T23:14:22.178Z,14.06
2019-02-17T23:16:51.198Z,14.02
2019-02-17T23:19:20.329Z,13.99
2019-02-17T23:21:49.615Z,13.92
2019-02-17T23:24:18.792Z,13.88
2019-02-17T23:26:49.898Z,13.86
2019-02-17T23:29:18.903Z,13.81
2019-02-17T23:31:47.979Z,13.74
2019-02-17T23:34:17.051Z,13.68
2019-02-17T23:36:46.087Z,13.64
2019-02-17T23:39:15.158Z,13.60
2019-02-17T23:41:44.295Z,13.54
2019-02-17T23:44:13.381Z,13.48
2019-02-17T23:46:42.626Z,13.43
2019-02-17T23:49:11.700Z,13.39
2019-02-17T23:51:40.906Z,13.34
2019-02-17T23:54:10.014Z,13.35
2019-02-17T23:56:39.397Z,13.36
2019-02-17T23:59:08.527Z,13.33
